Waskesiu Lake, Canada
Current Conditions -  °F | °C
As of 2:23 PM on Friday 21 Nov 2014 (Local Time) from CYPA Reporting Station
Haze Haze  
Wind Chill: 26°   Ceiling: 1500
Heat Index: 34°   Visibility: 6mi
Dew Point: 30°   Wind: 9mph
Humidity: 87%   Direction: 350°N
Pressure: 29.49"   Gusts: NA
Location:  53.92°N, 106.08°W
Report Text: CYPA 212023Z 35008KT 6SM BR FEW008 BKN015 OVC055 01/M01 A2949 RMK ST2SC5SC1 SLP008
Loading
Personal Weather Stations






























Interactive Weather Map New forecast layout! Learn more

10-Day Weather Forecast

Advertisements
Track Severe Weather on mobile